This is the latest recevied weather packets stored in our database for station/object IZ1UQG-1. If no packets are shown the sender has not sent any weather packets the latest 10 day(s).
| Time | Temp. | Humidity | Pressure | Rain* | Wind** | Luminosity | Snow |
|---|---|---|---|---|---|---|---|
| 1777945436 | 17.22° C | 52% | 1012.9 hPa | 139.19 mm | - | - | - |
| 1777945136 | 17.22° C | 52% | 1013 hPa | 76.45 mm | - | - | - |
| 1777944836 | 17.22° C | 52% | 1013.1 hPa | 139.19 mm | - | - | - |
| 1777944536 | 17.22° C | 52% | 1013 hPa | 104.39 mm | - | - | - |
| 1777944236 | 17.22° C | 52% | 1013.1 hPa | 76.45 mm | - | - | - |
| 1777943936 | 17.22° C | 52% | 1013.4 hPa | 234.19 mm | - | - | - |
| 1777943636 | 17.22° C | 52% | 1013.3 hPa | 89.41 mm | - | - | - |
| 1777943336 | 17.22° C | 52% | 1013.4 hPa | 112.78 mm | - | - | - |
| 1777943036 | 17.22° C | 52% | 1013.4 hPa | 60.45 mm | - | - | - |
| 1777942736 | 17.22° C | 52% | 1013.6 hPa | 229.11 mm | - | - | - |
| 1777942436 | 17.22° C | 52% | 1013.6 hPa | 113.79 mm | - | - | - |
| 1777942136 | 17.22° C | 52% | 1013.6 hPa | 123.19 mm | - | - | - |
| 1777941836 | 17.22° C | 52% | 1013.7 hPa | 111.76 mm | - | - | - |
| 1777941536 | 17.22° C | 52% | 1013.9 hPa | 131.83 mm | - | - | - |
| 1777941236 | 17.22° C | 52% | 1014 hPa | 170.69 mm | - | - | - |
| 1777940936 | 17.22° C | 51% | 1013.8 hPa | 161.54 mm | - | - | - |
| 1777940636 | 17.22° C | 51% | 1013.9 hPa | 190.5 mm | - | - | - |
| 1777940336 | 17.22° C | 51% | 1013.9 hPa | 84.84 mm | - | - | - |
| 1777940036 | 17.22° C | 51% | 1014 hPa | 120.14 mm | - | - | - |
| 1777939736 | 17.78° C | 51% | 1014.1 hPa | 121.16 mm | - | - | - |
| 1777939436 | 17.78° C | 51% | 1014.1 hPa | 107.19 mm | - | - | - |
| 1777939136 | 17.78° C | 51% | 1014.2 hPa | 9.65 mm | - | - | - |
| 1777938836 | 17.78° C | 51% | 1014.2 hPa | 90.93 mm | - | - | - |
| 1777938536 | 17.78° C | 51% | 1014.4 hPa | 69.85 mm | - | - | - |
| 1777938236 | 17.78° C | 51% | 1014.6 hPa | 100.84 mm | - | - | - |
* Rain latest hour (hover to see other rain measurements)
** Current wind speed in m/s (hover to see current wind gust speed)